createdAt,value
2018-02-19T00:00:32.348Z,94.64
2018-02-19T00:03:03.413Z,94.91
2018-02-19T00:05:34.538Z,94.80
2018-02-19T00:08:05.510Z,94.99
2018-02-19T00:10:36.703Z,94.90
2018-02-19T00:13:07.771Z,95.06
2018-02-19T00:15:38.801Z,94.98
2018-02-19T00:18:09.552Z,95.10
2018-02-19T00:20:40.320Z,95.26
2018-02-19T00:23:11.077Z,95.29
2018-02-19T00:25:41.845Z,95.10
2018-02-19T00:28:12.605Z,95.04
2018-02-19T00:30:49.400Z,94.54
2018-02-19T00:33:20.167Z,94.39
2018-02-19T00:35:50.937Z,94.26
2018-02-19T00:38:21.692Z,94.29
2018-02-19T00:40:52.461Z,94.04
2018-02-19T00:43:23.245Z,93.97
2018-02-19T00:45:54.024Z,94.08
2018-02-19T00:48:24.813Z,94.04
2018-02-19T00:50:55.573Z,94.13
2018-02-19T00:53:26.321Z,94.24
2018-02-19T00:55:57.093Z,94.30
2018-02-19T00:58:27.857Z,94.18
2018-02-19T01:00:58.616Z,94.20
2018-02-19T01:03:29.374Z,94.20
2018-02-19T01:06:00.145Z,94.38
2018-02-19T01:08:30.901Z,94.67
2018-02-19T01:11:01.674Z,94.64
2018-02-19T01:13:32.417Z,94.62
2018-02-19T01:16:03.173Z,95.01
2018-02-19T01:18:33.909Z,94.88
2018-02-19T01:21:04.669Z,94.66
2018-02-19T01:23:35.413Z,94.65
2018-02-19T01:26:06.173Z,94.85
2018-02-19T01:28:36.917Z,94.63
2018-02-19T01:31:07.676Z,94.64
2018-02-19T01:33:38.409Z,94.78
2018-02-19T01:36:09.165Z,94.85
2018-02-19T01:38:39.916Z,94.83
2018-02-19T01:41:10.676Z,94.80
2018-02-19T01:43:41.415Z,94.83
2018-02-19T01:46:12.174Z,94.81
2018-02-19T01:48:44.972Z,94.83
2018-02-19T01:51:15.742Z,94.81
2018-02-19T01:53:46.502Z,94.78
2018-02-19T01:56:17.262Z,94.71
2018-02-19T01:58:47.996Z,94.92
2018-02-19T02:01:18.756Z,94.70
2018-02-19T02:03:49.508Z,94.65
2018-02-19T02:06:20.322Z,94.66
2018-02-19T02:08:51.025Z,94.47
2018-02-19T02:11:21.774Z,94.43
2018-02-19T02:13:52.525Z,94.59
2018-02-19T02:16:23.298Z,94.64
2018-02-19T02:18:54.056Z,94.87
2018-02-19T02:21:24.857Z,94.76
2018-02-19T02:23:55.624Z,94.51
2018-02-19T02:26:26.388Z,94.20
2018-02-19T02:28:57.120Z,93.60
2018-02-19T02:31:27.880Z,93.09
2018-02-19T02:33:58.620Z,92.67
2018-02-19T02:36:29.374Z,92.62
2018-02-19T02:39:00.131Z,92.66
2018-02-19T02:41:30.892Z,92.70
2018-02-19T02:44:01.636Z,92.63
2018-02-19T02:46:38.424Z,92.75
2018-02-19T02:49:09.173Z,92.66
2018-02-19T02:51:39.936Z,92.82
2018-02-19T02:54:10.687Z,93.11
2018-02-19T02:56:41.456Z,93.10
2018-02-19T02:59:12.230Z,93.33
2018-02-19T03:01:43.053Z,93.25
2018-02-19T03:04:13.826Z,93.51
2018-02-19T03:06:44.633Z,93.84
2018-02-19T03:09:15.381Z,93.90
2018-02-19T03:11:46.196Z,93.74
2018-02-19T03:14:16.945Z,93.74
2018-02-19T03:16:47.735Z,93.69
2018-02-19T03:19:18.580Z,93.76
2018-02-19T03:21:49.360Z,93.51
2018-02-19T03:24:20.101Z,93.33
2018-02-19T03:26:50.861Z,93.60
2018-02-19T03:29:21.618Z,93.38
2018-02-19T03:31:52.373Z,93.33
2018-02-19T03:34:23.123Z,93.48
2018-02-19T03:36:53.872Z,93.67
2018-02-19T03:39:25.160Z,93.88
2018-02-19T03:41:55.921Z,93.72
2018-02-19T03:44:26.709Z,93.78
2018-02-19T03:46:57.453Z,94.50
2018-02-19T03:49:28.224Z,94.41
2018-02-19T03:51:58.973Z,94.39
2018-02-19T03:54:29.724Z,94.35
2018-02-19T03:57:01.543Z,94.17
2018-02-19T03:59:32.299Z,94.36
2018-02-19T04:02:03.057Z,94.28
2018-02-19T04:04:33.832Z,94.27
2018-02-19T04:07:04.591Z,94.15
2018-02-19T04:09:35.353Z,94.17
2018-02-19T04:12:06.105Z,94.14
2018-02-19T04:14:36.877Z,94.31
2018-02-19T04:17:07.621Z,94.23
2018-02-19T04:19:38.397Z,94.20
2018-02-19T04:22:09.173Z,94.40
2018-02-19T04:24:39.915Z,94.53
2018-02-19T04:27:10.689Z,94.61
2018-02-19T04:29:41.464Z,94.63
2018-02-19T04:32:12.214Z,94.56
2018-02-19T04:34:42.989Z,94.46
2018-02-19T04:37:13.730Z,94.42
2018-02-19T04:39:44.505Z,94.11
2018-02-19T04:42:15.271Z,94.09
2018-02-19T04:44:46.865Z,94.28
2018-02-19T04:47:17.638Z,94.26
2018-02-19T04:49:48.397Z,94.24
2018-02-19T04:52:19.144Z,94.22
2018-02-19T04:54:49.921Z,94.25
2018-02-19T04:57:20.688Z,94.18
2018-02-19T04:59:51.458Z,94.29
2018-02-19T05:02:22.230Z,94.34
2018-02-19T05:04:52.984Z,94.29
2018-02-19T05:07:23.725Z,94.49
2018-02-19T05:09:54.501Z,94.37
2018-02-19T05:12:25.255Z,94.38
2018-02-19T05:14:56.024Z,94.51
2018-02-19T05:17:26.797Z,94.56
2018-02-19T05:19:57.565Z,94.48
2018-02-19T05:22:28.301Z,94.62
2018-02-19T05:24:59.051Z,94.55
2018-02-19T05:27:29.792Z,94.47
2018-02-19T05:30:00.558Z,94.64
2018-02-19T05:32:31.296Z,94.83
2018-02-19T05:35:02.049Z,94.53
2018-02-19T05:37:32.801Z,94.65
2018-02-19T05:40:03.569Z,94.40
2018-02-19T05:42:34.304Z,94.19
2018-02-19T05:45:05.089Z,94.25
2018-02-19T05:47:35.889Z,94.33
2018-02-19T05:50:06.601Z,94.18
2018-02-19T05:52:37.356Z,94.13
2018-02-19T05:55:08.124Z,94.08
2018-02-19T05:57:38.874Z,94.15
2018-02-19T06:00:09.641Z,94.03
2018-02-19T06:02:40.374Z,94.15
2018-02-19T06:05:11.138Z,94.50
2018-02-19T06:07:41.893Z,94.44
2018-02-19T06:10:12.636Z,94.45
2018-02-19T06:12:43.385Z,94.39
2018-02-19T06:15:14.256Z,94.42
2018-02-19T06:17:45.033Z,94.23
2018-02-19T06:20:17.877Z,93.96
2018-02-19T06:22:48.696Z,93.82
2018-02-19T06:25:19.551Z,93.62
2018-02-19T06:27:51.428Z,93.70
2018-02-19T06:30:22.229Z,93.60
2018-02-19T06:32:53.071Z,93.36
2018-02-19T06:35:23.838Z,92.97
2018-02-19T06:37:54.605Z,92.80
2018-02-19T06:40:25.373Z,92.91
2018-02-19T06:42:56.155Z,92.97
2018-02-19T06:45:30.329Z,93.09
2018-02-19T06:48:05.764Z,92.63
2018-02-19T06:50:36.528Z,92.58
2018-02-19T06:53:07.333Z,92.57
2018-02-19T06:55:38.113Z,92.24
2018-02-19T06:58:08.877Z,92.20
2018-02-19T07:00:39.668Z,91.91
2018-02-19T07:03:10.469Z,91.87
2018-02-19T07:05:41.260Z,91.36
2018-02-19T07:08:12.031Z,91.13
2018-02-19T07:10:42.800Z,91.05
2018-02-19T07:13:13.561Z,90.81
2018-02-19T07:15:44.327Z,90.43
2018-02-19T07:18:15.078Z,90.55
2018-02-19T07:20:45.865Z,90.24
2018-02-19T07:23:16.622Z,89.99
2018-02-19T07:25:47.386Z,90.03
2018-02-19T07:28:18.215Z,89.94
2018-02-19T07:30:49.016Z,90.01
2018-02-19T07:33:19.766Z,90.25
2018-02-19T07:35:50.553Z,89.69
2018-02-19T07:38:21.354Z,89.08
2018-02-19T07:40:52.133Z,89.03
2018-02-19T07:43:22.874Z,88.96
2018-02-19T07:45:53.657Z,88.91
2018-02-19T07:48:24.408Z,88.86
2018-02-19T07:50:55.169Z,88.60
2018-02-19T07:53:25.946Z,88.49
2018-02-19T07:55:56.716Z,87.99
2018-02-19T07:58:27.478Z,87.59
2018-02-19T08:00:58.224Z,87.57
2018-02-19T08:03:31.060Z,87.40
2018-02-19T08:06:01.819Z,87.51
2018-02-19T08:08:32.561Z,85.78
2018-02-19T08:11:03.329Z,83.17
2018-02-19T08:13:34.077Z,79.37
2018-02-19T08:16:04.840Z,77.64
2018-02-19T08:18:35.577Z,76.17
2018-02-19T08:21:06.347Z,75.71
2018-02-19T08:23:37.092Z,73.36
2018-02-19T08:26:07.849Z,71.19
2018-02-19T08:28:38.596Z,69.07
2018-02-19T08:31:09.361Z,70.72
2018-02-19T08:33:40.096Z,70.11
2018-02-19T08:36:10.865Z,71.09
2018-02-19T08:38:41.607Z,68.39
2018-02-19T08:41:12.356Z,68.18
2018-02-19T08:43:43.190Z,68.17
2018-02-19T08:46:13.977Z,66.14
2018-02-19T08:48:44.729Z,65.10
2018-02-19T08:51:15.497Z,66.95
2018-02-19T08:53:46.241Z,65.57
2018-02-19T08:56:17.000Z,64.15
2018-02-19T08:58:47.769Z,65.98
2018-02-19T09:01:18.550Z,64.39
2018-02-19T09:03:49.333Z,64.01
2018-02-19T09:06:20.101Z,64.73
2018-02-19T09:08:50.849Z,64.34
2018-02-19T09:11:21.613Z,65.16
2018-02-19T09:13:52.365Z,64.34
2018-02-19T09:16:23.148Z,65.76
2018-02-19T09:18:53.930Z,64.54
2018-02-19T09:21:24.721Z,63.79
2018-02-19T09:23:55.553Z,62.61
2018-02-19T09:26:26.385Z,62.42
2018-02-19T09:28:57.129Z,62.71
2018-02-19T09:31:27.898Z,63.15
2018-02-19T09:33:58.653Z,64.14
2018-02-19T09:36:29.453Z,64.40
2018-02-19T09:39:00.196Z,66.07
2018-02-19T09:41:30.953Z,66.09
2018-02-19T09:44:01.707Z,62.13
2018-02-19T09:46:32.486Z,64.17
2018-02-19T09:49:03.244Z,65.05
2018-02-19T09:51:34.048Z,63.13
2018-02-19T09:54:04.820Z,64.05
2018-02-19T09:56:35.600Z,62.26
2018-02-19T09:59:11.161Z,63.49
2018-02-19T10:01:41.944Z,63.50
2018-02-19T10:04:12.733Z,64.59
2018-02-19T10:06:43.519Z,65.05
2018-02-19T10:09:14.325Z,65.19
2018-02-19T10:11:45.101Z,63.15
2018-02-19T10:14:16.909Z,64.21
2018-02-19T10:16:47.677Z,66.70
2018-02-19T10:19:18.429Z,65.21
2018-02-19T10:21:54.037Z,65.99
2018-02-19T10:24:24.817Z,65.98
2018-02-19T10:26:55.635Z,65.15
2018-02-19T10:29:26.414Z,63.43
2018-02-19T10:31:57.338Z,61.08
2018-02-19T10:34:32.513Z,61.45
2018-02-19T10:37:12.056Z,61.36
2018-02-19T10:39:54.511Z,57.85
2018-02-19T11:05:55.854Z,58.48
2018-02-19T11:08:26.756Z,58.45
2018-02-19T11:10:57.757Z,59.21
2018-02-19T11:13:29.675Z,59.18
2018-02-19T11:16:00.511Z,58.38
2018-02-19T11:18:31.535Z,58.20
2018-02-19T11:21:02.544Z,62.03
2018-02-19T11:23:33.447Z,59.76
2018-02-19T11:26:04.352Z,61.81
2018-02-19T11:28:35.216Z,58.13
2018-02-19T11:31:06.044Z,59.68
2018-02-19T11:33:36.934Z,58.35
2018-02-19T11:36:07.917Z,60.54
2018-02-19T11:38:38.880Z,60.03
2018-02-19T11:41:09.745Z,60.76
2018-02-19T11:43:40.594Z,57.31
2018-02-19T11:46:11.458Z,59.96
2018-02-19T11:48:42.398Z,60.28
2018-02-19T11:51:13.267Z,61.44
2018-02-19T11:53:44.164Z,60.54
2018-02-19T11:56:15.055Z,60.17
2018-02-19T11:58:45.903Z,59.57
2018-02-19T12:01:16.777Z,62.88
2018-02-19T12:03:47.650Z,59.85
2018-02-19T12:06:18.562Z,56.66
2018-02-19T12:08:49.448Z,56.26
2018-02-19T12:11:20.281Z,57.01
2018-02-19T12:13:53.164Z,60.24
2018-02-19T12:16:25.149Z,59.08
2018-02-19T12:18:56.010Z,58.39
2018-02-19T12:21:26.851Z,60.72
2018-02-19T12:23:57.729Z,60.84
2018-02-19T12:26:28.570Z,60.40
2018-02-19T12:28:59.494Z,60.12
2018-02-19T12:31:30.366Z,60.63
2018-02-19T12:34:01.234Z,58.54
2018-02-19T12:36:35.388Z,62.22
2018-02-19T12:39:06.253Z,64.34
2018-02-19T12:41:37.090Z,62.32
2018-02-19T12:44:08.048Z,59.56
2018-02-19T12:46:38.868Z,56.00
2018-02-19T12:49:09.726Z,53.85
2018-02-19T12:51:40.547Z,51.48
2018-02-19T12:54:11.411Z,52.27
2018-02-19T12:56:42.288Z,49.81
2018-02-19T12:59:13.228Z,50.70
2018-02-19T13:01:44.062Z,53.28
2018-02-19T13:04:14.919Z,56.98
2018-02-19T13:06:45.832Z,56.20
2018-02-19T13:09:16.706Z,56.26
2018-02-19T13:11:47.510Z,55.64
2018-02-19T13:14:18.454Z,55.68
2018-02-19T13:16:49.262Z,54.01
2018-02-19T13:19:20.083Z,56.61
2018-02-19T13:21:50.961Z,57.87
2018-02-19T13:24:21.828Z,56.79
2018-02-19T13:26:52.652Z,57.07
2018-02-19T13:29:24.545Z,55.36
2018-02-19T13:31:55.330Z,57.30
2018-02-19T13:34:26.145Z,57.47
2018-02-19T13:36:56.977Z,56.68
2018-02-19T13:39:27.816Z,59.00
2018-02-19T13:41:58.644Z,58.51
2018-02-19T13:44:29.575Z,58.03
2018-02-19T13:47:00.428Z,59.11
2018-02-19T13:49:31.278Z,58.07
2018-02-19T13:52:04.178Z,56.86
2018-02-19T13:54:35.004Z,57.82
2018-02-19T13:57:05.821Z,56.16
2018-02-19T13:59:36.715Z,55.76
2018-02-19T14:02:07.632Z,55.47
2018-02-19T14:04:38.464Z,51.62
2018-02-19T14:07:09.303Z,50.15
2018-02-19T14:09:40.136Z,50.03
2018-02-19T14:12:10.972Z,51.73
2018-02-19T14:14:42.026Z,52.40
2018-02-19T14:17:12.877Z,52.79
2018-02-19T14:19:43.733Z,48.67
2018-02-19T14:22:14.574Z,49.35
2018-02-19T14:24:45.434Z,51.68
2018-02-19T14:27:16.283Z,53.35
2018-02-19T14:29:47.108Z,56.27
2018-02-19T14:32:17.919Z,50.64
2018-02-19T14:34:48.735Z,48.24
2018-02-19T14:37:19.619Z,48.90
2018-02-19T14:39:50.442Z,50.03
2018-02-19T14:42:21.281Z,53.24
2018-02-19T14:44:55.622Z,51.58
2018-02-19T14:47:26.453Z,50.10
2018-02-19T14:49:57.294Z,57.38
2018-02-19T14:52:28.122Z,58.72
2018-02-19T14:54:59.079Z,62.75
2018-02-19T14:57:29.895Z,61.40
2018-02-19T15:00:00.759Z,62.01
2018-02-19T15:02:32.951Z,61.49
2018-02-19T15:05:03.862Z,64.22
2018-02-19T15:07:38.495Z,65.84
2018-02-19T15:10:09.323Z,68.01
2018-02-19T15:12:40.188Z,63.87
2018-02-19T15:15:11.062Z,66.55
2018-02-19T15:17:41.934Z,63.79
2018-02-19T15:20:12.851Z,65.75
2018-02-19T15:22:43.725Z,64.69
2018-02-19T15:25:14.580Z,66.09
2018-02-19T15:27:45.448Z,70.35
2018-02-19T15:30:17.315Z,71.07
2018-02-19T15:32:48.146Z,68.23
2018-02-19T15:35:18.991Z,69.32
2018-02-19T15:37:49.858Z,70.81
2018-02-19T15:40:20.748Z,71.41
2018-02-19T15:42:51.606Z,72.77
2018-02-19T15:45:23.132Z,73.52
2018-02-19T15:47:53.981Z,74.05
2018-02-19T15:50:25.056Z,73.97
2018-02-19T15:52:55.926Z,74.31
2018-02-19T15:55:26.766Z,76.18
2018-02-19T15:57:57.590Z,77.23
2018-02-19T16:00:28.461Z,75.86
2018-02-19T16:02:59.348Z,76.42
2018-02-19T16:05:30.188Z,77.52
2018-02-19T16:08:01.086Z,77.87
2018-02-19T16:10:31.977Z,79.00
2018-02-19T16:13:02.836Z,79.35
2018-02-19T16:15:34.237Z,80.70
2018-02-19T16:18:05.097Z,79.28
2018-02-19T16:20:35.973Z,81.28
2018-02-19T16:23:06.855Z,80.84
2018-02-19T16:25:37.791Z,80.57
2018-02-19T16:28:08.633Z,82.34
2018-02-19T16:30:39.497Z,81.26
2018-02-19T16:33:10.331Z,80.86
2018-02-19T16:35:41.163Z,80.76
2018-02-19T16:38:11.996Z,82.10
2018-02-19T16:40:42.886Z,82.06
2018-02-19T16:43:13.716Z,82.50
2018-02-19T16:45:44.734Z,82.65
2018-02-19T16:48:15.627Z,83.44
2018-02-19T16:50:46.534Z,83.49
2018-02-19T16:53:17.465Z,83.02
2018-02-19T16:55:48.343Z,82.76
2018-02-19T16:58:19.435Z,83.29
2018-02-19T17:00:50.282Z,83.12
2018-02-19T17:03:21.182Z,82.72
2018-02-19T17:05:52.299Z,83.82
2018-02-19T17:08:23.348Z,84.64
2018-02-19T17:10:54.212Z,83.50
2018-02-19T17:13:27.078Z,83.26
2018-02-19T17:15:57.978Z,84.00
2018-02-19T17:18:28.850Z,84.31
2018-02-19T17:20:59.782Z,84.39
2018-02-19T17:23:30.681Z,84.73
2018-02-19T17:26:01.527Z,85.37
2018-02-19T17:28:32.394Z,84.81
2018-02-19T17:31:03.559Z,85.61
2018-02-19T17:33:34.385Z,85.44
2018-02-19T17:36:05.310Z,84.96
2018-02-19T17:38:36.166Z,85.60
2018-02-19T17:41:06.984Z,85.17
2018-02-19T17:43:37.923Z,85.41
2018-02-19T17:46:08.860Z,86.78
2018-02-19T17:48:39.745Z,86.81
2018-02-19T17:51:10.621Z,85.60
2018-02-19T17:53:41.500Z,87.08
2018-02-19T17:56:12.370Z,87.41
2018-02-19T17:58:43.237Z,87.04
2018-02-19T18:01:14.095Z,86.92
2018-02-19T18:03:44.920Z,86.91
2018-02-19T18:06:16.002Z,86.51
2018-02-19T18:08:48.025Z,87.77
2018-02-19T18:11:18.929Z,87.44
2018-02-19T18:13:49.823Z,87.69
2018-02-19T18:16:20.741Z,87.95
2018-02-19T18:18:51.661Z,86.44
2018-02-19T18:21:22.631Z,87.52
2018-02-19T18:23:53.534Z,87.77
2018-02-19T18:26:24.604Z,87.74
2018-02-19T18:28:55.446Z,88.09
2018-02-19T18:31:26.306Z,88.74
2018-02-19T18:33:57.323Z,89.56
2018-02-19T18:36:29.239Z,89.74
2018-02-19T18:39:00.226Z,89.31
2018-02-19T18:41:31.106Z,88.68
2018-02-19T18:44:01.967Z,89.00
2018-02-19T18:46:32.840Z,88.83
2018-02-19T18:49:03.709Z,89.40
2018-02-19T18:51:34.597Z,88.78
2018-02-19T18:54:05.462Z,89.10
2018-02-19T18:56:36.275Z,88.68
2018-02-19T18:59:07.298Z,89.60
2018-02-19T19:01:38.215Z,89.41
2018-02-19T19:04:09.039Z,89.00
2018-02-19T19:06:39.912Z,89.88
2018-02-19T19:09:22.916Z,89.03
2018-02-19T19:11:53.888Z,88.94
2018-02-19T19:14:24.759Z,90.11
2018-02-19T19:16:55.581Z,90.08
2018-02-19T19:19:26.438Z,90.13
2018-02-19T19:21:57.271Z,90.12
2018-02-19T19:24:28.075Z,90.01
2018-02-19T19:26:58.915Z,90.60
2018-02-19T19:29:29.739Z,90.38
2018-02-19T19:32:00.567Z,90.07
2018-02-19T19:34:31.387Z,91.28
2018-02-19T19:37:02.218Z,91.13
2018-02-19T19:39:33.056Z,91.60
2018-02-19T19:42:03.872Z,91.02
2018-02-19T19:44:34.711Z,90.27
2018-02-19T19:47:05.548Z,91.25
2018-02-19T19:49:36.480Z,91.46
2018-02-19T19:52:07.278Z,91.47
2018-02-19T19:54:38.104Z,91.62
2018-02-19T19:57:08.938Z,91.00
2018-02-19T19:59:39.825Z,90.97
2018-02-19T20:02:10.717Z,91.37
2018-02-19T20:04:41.549Z,91.05
2018-02-19T20:07:12.342Z,90.90
2018-02-19T20:09:43.177Z,90.85
2018-02-19T20:12:13.986Z,90.79
2018-02-19T20:14:44.818Z,90.70
2018-02-19T20:17:15.662Z,91.12
2018-02-19T20:19:46.499Z,91.03
2018-02-19T20:22:17.314Z,91.35
2018-02-19T20:24:48.151Z,91.19
2018-02-19T20:27:18.946Z,91.61
2018-02-19T20:29:49.774Z,91.81
2018-02-19T20:32:20.566Z,91.66
2018-02-19T20:34:51.426Z,91.95
2018-02-19T20:37:22.425Z,92.00
2018-02-19T20:39:53.303Z,92.05
2018-02-19T20:42:24.151Z,92.58
2018-02-19T20:44:54.973Z,92.84
2018-02-19T20:47:25.789Z,92.79
2018-02-19T20:49:56.576Z,93.17
2018-02-19T20:52:27.358Z,93.39
2018-02-19T20:54:58.171Z,93.28
2018-02-19T20:57:29.115Z,92.74
2018-02-19T21:00:00.006Z,92.14
2018-02-19T21:02:30.870Z,90.26
2018-02-19T21:05:01.699Z,88.84
2018-02-19T21:07:32.596Z,88.69
2018-02-19T21:10:03.441Z,87.17
2018-02-19T21:12:34.671Z,86.95
2018-02-19T21:15:05.554Z,86.97
2018-02-19T21:17:36.417Z,87.12
2018-02-19T21:20:07.332Z,86.48
2018-02-19T21:22:38.175Z,86.97
2018-02-19T21:25:09.024Z,87.09
2018-02-19T21:27:39.936Z,87.29
2018-02-19T21:30:10.774Z,86.07
2018-02-19T21:32:41.702Z,85.59
2018-02-19T21:35:12.614Z,85.32
2018-02-19T21:37:43.520Z,85.97
2018-02-19T21:40:14.386Z,86.18
2018-02-19T21:42:45.326Z,86.36
2018-02-19T21:45:16.219Z,86.08
2018-02-19T21:47:47.055Z,85.96
2018-02-19T21:50:17.997Z,85.95
2018-02-19T21:52:48.841Z,85.62
2018-02-19T21:55:19.665Z,85.19
2018-02-19T21:57:50.505Z,84.97
2018-02-19T22:00:21.378Z,84.66
2018-02-19T22:02:52.202Z,85.77
2018-02-19T22:05:23.081Z,85.36
2018-02-19T22:07:53.894Z,85.19
2018-02-19T22:10:24.727Z,85.09
2018-02-19T22:12:55.580Z,85.57
2018-02-19T22:15:26.439Z,85.81
2018-02-19T22:17:57.294Z,84.66
2018-02-19T22:20:28.126Z,84.45
2018-02-19T22:22:58.987Z,84.07
2018-02-19T22:25:29.822Z,84.46
2018-02-19T22:28:00.697Z,84.18
2018-02-19T22:30:31.526Z,84.85
2018-02-19T22:33:02.359Z,84.44
2018-02-19T22:35:33.246Z,85.68
2018-02-19T22:38:04.069Z,85.93
2018-02-19T22:40:34.904Z,85.34
2018-02-19T22:43:05.721Z,85.11
2018-02-19T22:45:36.549Z,84.09
2018-02-19T22:48:07.430Z,84.70
2018-02-19T22:50:38.291Z,85.14
2018-02-19T22:53:09.130Z,84.88
2018-02-19T22:55:39.985Z,84.64
2018-02-19T22:58:10.860Z,84.84
2018-02-19T23:00:41.737Z,85.16
2018-02-19T23:03:12.593Z,85.29
2018-02-19T23:05:43.463Z,85.71
2018-02-19T23:08:14.249Z,85.77
2018-02-19T23:10:45.121Z,85.73
2018-02-19T23:13:15.977Z,86.33
2018-02-19T23:15:46.851Z,85.93
2018-02-19T23:18:17.707Z,85.75
2018-02-19T23:20:48.528Z,85.55
2018-02-19T23:23:19.342Z,84.97
2018-02-19T23:25:50.215Z,84.85
2018-02-19T23:28:21.048Z,84.86
2018-02-19T23:30:51.884Z,85.49
2018-02-19T23:33:22.700Z,85.62
2018-02-19T23:35:53.569Z,84.28
2018-02-19T23:38:24.426Z,84.67
2018-02-19T23:40:55.277Z,84.42
2018-02-19T23:43:26.181Z,84.56
2018-02-19T23:45:57.051Z,84.80
2018-02-19T23:48:27.893Z,85.78
2018-02-19T23:50:58.730Z,85.95
2018-02-19T23:53:29.541Z,85.87
2018-02-19T23:56:00.383Z,85.27
2018-02-19T23:58:31.217Z,85.32
